Paxton, Nebraska
Current Conditions -  °F | °C
As of 3:35 PM on Monday 26 Jan 2015 (Local Time) from KOGA Reporting Station
Clear Clear  
Wind Chill: 65°   Ceiling: Unl
Heat Index: 65°   Visibility: 10mi
Dew Point: 32°   Wind: 7mph
Humidity: 29%   Direction: 300°WNW
Pressure: 30.09"   Gusts: NA
Location:  41.12°N, 101.36°W
Report Text: KOGA 262235Z AUTO 30006KT 10SM CLR 19/00 A3009 RMK AO2 T01860002
Loading
Personal Weather Stations






























Interactive Weather Map New forecast layout! Learn more

10-Day Weather Forecast

Advertisements
Track Severe Weather on mobile